Etusivu
METAR-TAF:

METAR-TAF

Lentoasemat :

Colorado City, Arizona, Yhdysvallat

Leveyspiiri: 36-57-36N, Pituuspiiri: 113-00-50W, korkeus merenpinnasta: 1486 m

Tämänhetkinen sää

Tämä raportti tehtiin 11 minuuttia sitten, kello 20.35 UTC
Tuuli 4 kn idästä/kaakosta
Lämpötila 10°C
Kosteus 50%
Ilmanpaine 1023 hPa
Näkyvyys: 16.1 km

METAR: KAZC 112035Z AUTO 12004KT 10SM 10/00 A3022 RMK AO2 P0001

Aika: 13:46 (20:46 UTC)


TAF: puuttuu

Säähavainnot ja -ennusteet yli 4000 lentoasemalta (METAR- ja TAF-raportit).

Käytössä olevat sääasemat on merkitty karttaan keltaisilla ja punaisilla pisteillä.

Aseta hiiri pisteen päälle nähdäksesi sääaseman nimen.

Klikkaa sitten nähdäksesi säähavainnot ja -ennusteet.

Kartan vaihtaminen: klikkaa mustalla rastilla varustettuja vihreitä pisteitä, niin voit zoomata sisään; viivalla varustettua vihreää pistettä, niin voit zoomata ulos tai vihreitä nuolia, niin pääset viereisille kartoille.


METAR-TAF: